Time;durP1;ratioP1;P1;durP2;ratioP2;P2;SDS_P1;SDS_P2;PMS_P1;PMS_P2;Temp;Humidity;BMP_temperature;BMP_pressure;BME280_temperature;BME280_humidity;BME280_pressure;Samples;Min_cycle;Max_cycle;Signal;HPM_P1;HPM_P2
2024/01/29 00:00:45;;;;;;;5.90;1.60;;;4.60;99.90;;;;;;5012685;28;20229;-64
2024/01/29 00:03:12;;;;;;;2.10;1.60;;;4.60;99.90;;;;;;4979329;28;20219;-64
2024/01/29 00:05:39;;;;;;;2.23;1.57;;;4.60;99.90;;;;;;4995353;28;20205;-64
2024/01/29 00:08:08;;;;;;;2.97;1.73;;;4.60;99.90;;;;;;5017187;28;20206;-64
2024/01/29 00:10:34;;;;;;;1.93;1.60;;;5.00;99.90;;;;;;5008802;28;20239;-64
2024/01/29 00:13:01;;;;;;;2.63;1.53;;;4.50;99.90;;;;;;4999354;28;20207;-64
2024/01/29 00:15:28;;;;;;;1.73;1.50;;;4.60;99.90;;;;;;5014784;28;20245;-64
2024/01/29 00:17:55;;;;;;;1.97;1.70;;;3.80;99.90;;;;;;4987462;28;20714;-64
2024/01/29 00:20:22;;;;;;;3.93;2.00;;;4.50;99.90;;;;;;5013173;28;20592;-63
2024/01/29 00:22:49;;;;;;;2.97;1.47;;;4.40;99.90;;;;;;5023503;28;20575;-64
2024/01/29 00:25:17;;;;;;;3.03;1.67;;;4.40;99.90;;;;;;5020969;28;20692;-64
2024/01/29 00:27:44;;;;;;;1.70;1.50;;;4.30;99.90;;;;;;5013166;28;20206;-64
2024/01/29 00:30:12;;;;;;;1.93;1.50;;;4.30;99.90;;;;;;5011578;28;20239;-64
2024/01/29 00:32:40;;;;;;;1.53;1.43;;;;;;;;;;4996171;28;20678;-64
2024/01/29 00:35:08;;;;;;;2.03;1.30;;;4.10;99.90;;;;;;5016718;28;20215;-64
2024/01/29 00:37:35;;;;;;;3.23;1.50;;;4.00;99.90;;;;;;5013793;28;20201;-64
2024/01/29 00:40:03;;;;;;;2.40;1.30;;;4.00;99.90;;;;;;5019079;28;20208;-64
2024/01/29 00:42:31;;;;;;;3.33;1.90;;;4.00;99.90;;;;;;5013456;28;20205;-64
2024/01/29 00:44:58;;;;;;;3.73;1.57;;;3.90;99.90;;;;;;5011171;28;22973;-64
2024/01/29 00:47:25;;;;;;;3.67;1.60;;;3.90;99.90;;;;;;5024369;28;20198;-64
2024/01/29 00:49:52;;;;;;;2.63;1.70;;;;;;;;;;4989571;28;20212;-64
2024/01/29 00:52:19;;;;;;;2.47;1.70;;;4.30;99.90;;;;;;5012298;28;20211;-64
2024/01/29 00:54:46;;;;;;;2.23;1.83;;;4.50;99.90;;;;;;5023618;28;20193;-64
2024/01/29 00:57:15;;;;;;;2.00;1.80;;;3.90;99.90;;;;;;5009913;28;20208;-64
2024/01/29 00:59:44;;;;;;;2.63;1.80;;;3.90;99.90;;;;;;5011167;28;20205;-64
2024/01/29 01:02:10;;;;;;;2.53;1.47;;;3.90;99.90;;;;;;5000969;28;20326;-64
2024/01/29 01:04:37;;;;;;;2.67;1.90;;;3.90;99.90;;;;;;4989894;28;20351;-64
2024/01/29 01:07:05;;;;;;;2.40;1.83;;;3.90;99.90;;;;;;5015095;28;20288;-64
2024/01/29 01:09:31;;;;;;;2.37;1.50;;;3.90;99.90;;;;;;5020743;28;20206;-64
2024/01/29 01:11:58;;;;;;;3.70;1.93;;;3.80;99.90;;;;;;5012469;28;20211;-63
2024/01/29 01:14:25;;;;;;;2.73;1.70;;;3.80;99.90;;;;;;5025620;28;20196;-64
2024/01/29 01:16:53;;;;;;;2.50;1.63;;;3.90;99.90;;;;;;5009225;28;20205;-64
2024/01/29 01:19:20;;;;;;;4.33;1.90;;;3.80;99.90;;;;;;5023040;28;20224;-64
2024/01/29 01:21:47;;;;;;;3.13;1.73;;;3.70;99.90;;;;;;4983548;28;20240;-64
2024/01/29 01:24:14;;;;;;;3.33;1.70;;;3.70;99.90;;;;;;5017171;28;21410;-64
2024/01/29 01:26:41;;;;;;;4.50;1.90;;;3.80;99.90;;;;;;5017030;28;20205;-64
2024/01/29 01:29:08;;;;;;;2.83;1.97;;;3.70;99.90;;;;;;5009800;28;20205;-64
2024/01/29 01:31:35;;;;;;;2.37;1.37;;;3.60;99.90;;;;;;5015882;28;20197;-64
2024/01/29 01:34:03;;;;;;;2.10;1.50;;;3.60;99.90;;;;;;5017983;28;20971;-64
2024/01/29 01:36:30;;;;;;;2.03;1.70;;;;;;;;;;4990031;28;20650;-64
2024/01/29 01:38:57;;;;;;;4.17;2.00;;;4.10;99.90;;;;;;5009193;28;20692;-64
2024/01/29 01:41:24;;;;;;;2.00;1.80;;;;;;;;;;5019349;28;20233;-64
2024/01/29 01:43:51;;;;;;;3.00;1.80;;;3.50;99.90;;;;;;5010819;28;20222;-64
2024/01/29 01:46:21;;;;;;;3.97;1.80;;;3.50;99.90;;;;;;5024271;28;20198;-64
2024/01/29 01:48:50;;;;;;;2.30;1.80;;;3.80;99.90;;;;;;5005986;28;20532;-64
2024/01/29 01:51:21;;;;;;;2.10;1.53;;;3.40;99.90;;;;;;5023930;28;20682;-64
2024/01/29 01:53:50;;;;;;;3.27;1.90;;;3.40;99.90;;;;;;4984093;28;20201;-64
2024/01/29 01:56:18;;;;;;;3.00;1.87;;;3.30;99.90;;;;;;5024745;28;20204;-64
2024/01/29 01:58:45;;;;;;;3.20;1.60;;;3.40;99.90;;;;;;5018257;28;20198;-64
2024/01/29 02:01:14;;;;;;;2.57;1.83;;;3.30;99.90;;;;;;5010492;28;20239;-64
2024/01/29 02:03:42;;;;;;;3.63;1.60;;;3.30;99.90;;;;;;5007359;28;20202;-64
2024/01/29 02:06:10;;;;;;;2.57;1.63;;;3.00;99.90;;;;;;5017820;28;20289;-64
2024/01/29 02:08:39;;;;;;;3.23;1.60;;;3.40;99.90;;;;;;4977116;28;20205;-64
2024/01/29 02:11:05;;;;;;;5.87;1.70;;;3.40;99.90;;;;;;5018150;28;20320;-63
2024/01/29 02:13:33;;;;;;;2.90;1.73;;;;;;;;;;5016978;28;20206;-64
2024/01/29 02:16:02;;;;;;;3.43;1.37;;;3.30;99.90;;;;;;5009291;28;21540;-64
2024/01/29 02:18:29;;;;;;;3.90;1.90;;;3.30;99.90;;;;;;5016471;28;20225;-64
2024/01/29 02:20:56;;;;;;;2.63;1.63;;;3.20;99.90;;;;;;5012461;28;20651;-64
2024/01/29 02:23:24;;;;;;;6.10;1.70;;;3.30;99.90;;;;;;4988189;28;20205;-64
2024/01/29 02:25:51;;;;;;;2.33;1.80;;;3.10;99.90;;;;;;5008713;28;20215;-64
2024/01/29 02:28:18;;;;;;;4.27;2.20;;;3.10;99.90;;;;;;5018627;28;20270;-63
2024/01/29 02:30:45;;;;;;;2.50;1.87;;;3.10;99.90;;;;;;5001226;28;20422;-64
2024/01/29 02:33:12;;;;;;;2.67;1.70;;;3.60;99.90;;;;;;5021389;28;20198;-64
2024/01/29 02:35:39;;;;;;;2.20;1.50;;;3.10;99.90;;;;;;5001764;28;20205;-63
2024/01/29 02:38:05;;;;;;;3.33;1.70;;;3.20;99.90;;;;;;5010770;28;20206;-64
2024/01/29 02:40:34;;;;;;;4.83;2.40;;;3.10;99.90;;;;;;4974106;28;20216;-63
2024/01/29 02:43:01;;;;;;;4.17;1.60;;;3.10;99.90;;;;;;5015733;28;20200;-63
2024/01/29 02:45:27;;;;;;;4.33;1.70;;;3.10;99.90;;;;;;5007586;28;20200;-64
2024/01/29 02:47:54;;;;;;;2.53;1.67;;;3.10;99.90;;;;;;5001093;28;20407;-64
2024/01/29 02:50:22;;;;;;;2.30;1.63;;;3.10;99.90;;;;;;4995602;28;20617;-63
2024/01/29 02:52:49;;;;;;;4.77;1.60;;;3.10;99.90;;;;;;5010616;28;20208;-64
2024/01/29 02:55:16;;;;;;;4.50;2.00;;;3.10;99.90;;;;;;4963992;28;20213;-64
2024/01/29 02:57:44;;;;;;;3.87;1.83;;;3.20;99.90;;;;;;5007862;28;20204;-63
2024/01/29 03:00:12;;;;;;;2.70;1.70;;;3.20;99.90;;;;;;5014174;28;20663;-64
2024/01/29 03:02:39;;;;;;;2.33;1.60;;;3.20;99.90;;;;;;4996302;28;20823;-64
2024/01/29 03:05:07;;;;;;;2.03;1.47;;;3.10;99.90;;;;;;5017525;28;20304;-64
2024/01/29 03:07:33;;;;;;;4.27;1.70;;;3.20;99.90;;;;;;5003436;28;20205;-64
2024/01/29 03:10:00;;;;;;;2.23;1.60;;;3.00;99.90;;;;;;4987661;28;20694;-64
2024/01/29 03:12:27;;;;;;;4.13;1.70;;;3.00;99.90;;;;;;5003986;28;20198;-63
2024/01/29 03:14:55;;;;;;;2.90;1.60;;;3.00;99.90;;;;;;5010902;28;20217;-64
2024/01/29 03:17:22;;;;;;;3.57;1.93;;;3.00;99.90;;;;;;5007898;28;20200;-63
2024/01/29 03:19:49;;;;;;;2.07;1.80;;;3.00;99.90;;;;;;5017211;28;20522;-64
2024/01/29 03:22:15;;;;;;;3.00;1.53;;;3.10;99.90;;;;;;5005365;28;20616;-63
2024/01/29 03:24:42;;;;;;;2.50;1.73;;;3.00;99.90;;;;;;5016641;28;20403;-64
2024/01/29 03:27:09;;;;;;;3.33;2.03;;;2.90;99.90;;;;;;4973314;28;20251;-64
2024/01/29 03:29:36;;;;;;;1.93;1.47;;;2.90;99.90;;;;;;5022345;28;20532;-63
2024/01/29 03:32:05;;;;;;;2.33;2.00;;;3.30;99.90;;;;;;5014998;28;20223;-64
2024/01/29 03:34:31;;;;;;;2.87;1.60;;;2.90;99.90;;;;;;5004975;28;20675;-64
2024/01/29 03:36:58;;;;;;;2.63;1.60;;;2.90;99.90;;;;;;5006667;28;20808;-64
2024/01/29 03:39:25;;;;;;;2.33;1.80;;;3.00;99.90;;;;;;5013988;28;20748;-63
2024/01/29 03:41:52;;;;;;;1.63;1.50;;;2.90;99.90;;;;;;4963752;28;20687;-63
2024/01/29 03:44:19;;;;;;;2.70;2.00;;;2.80;99.90;;;;;;5019976;28;20216;-63
2024/01/29 03:46:45;;;;;;;2.00;1.50;;;2.90;99.90;;;;;;5005168;28;20573;-63
2024/01/29 03:49:14;;;;;;;2.73;1.50;;;2.90;99.90;;;;;;5004653;28;20202;-63
2024/01/29 03:51:40;;;;;;;1.60;1.50;;;2.90;99.90;;;;;;5003921;28;20711;-64
2024/01/29 03:54:07;;;;;;;4.20;1.80;;;2.90;99.90;;;;;;5014430;28;20211;-64
2024/01/29 03:56:34;;;;;;;2.73;1.83;;;2.80;99.90;;;;;;4988283;28;20201;-64
2024/01/29 03:59:01;;;;;;;1.67;1.50;;;2.90;99.90;;;;;;5001063;28;20208;-64
2024/01/29 04:01:28;;;;;;;2.60;1.70;;;2.90;99.90;;;;;;5018004;28;20229;-63
2024/01/29 04:03:55;;;;;;;4.20;1.90;;;2.90;99.90;;;;;;4999208;28;20479;-64
2024/01/29 04:06:23;;;;;;;1.80;1.33;;;2.90;99.90;;;;;;5014037;28;20682;-64
2024/01/29 04:08:50;;;;;;;2.53;1.90;;;2.90;99.90;;;;;;5002542;28;20213;-63
2024/01/29 04:11:17;;;;;;;8.83;2.03;;;2.80;99.90;;;;;;5018739;28;20768;-63
2024/01/29 04:13:44;;;;;;;3.27;1.77;;;2.90;99.90;;;;;;4964270;28;20239;-63
2024/01/29 04:16:11;;;;;;;3.37;1.60;;;2.90;99.90;;;;;;5013822;28;20973;-63
2024/01/29 04:18:38;;;;;;;3.30;1.70;;;2.90;99.90;;;;;;4999559;28;20206;-63
2024/01/29 04:21:06;;;;;;;4.97;1.97;;;2.90;99.90;;;;;;5016605;28;20206;-63
2024/01/29 04:23:35;;;;;;;3.27;1.50;;;2.80;99.90;;;;;;5004638;28;20267;-64
2024/01/29 04:26:02;;;;;;;3.10;1.63;;;2.80;99.90;;;;;;5011590;28;20208;-64
2024/01/29 04:28:29;;;;;;;1.90;1.60;;;2.80;99.90;;;;;;4996578;28;20687;-64
2024/01/29 04:30:55;;;;;;;2.10;1.67;;;2.80;99.90;;;;;;4995736;28;20198;-64
2024/01/29 04:33:22;;;;;;;6.00;1.73;;;2.80;99.90;;;;;;5010200;28;20531;-64
2024/01/29 04:35:49;;;;;;;3.23;1.67;;;2.80;99.90;;;;;;5003376;28;20848;-63
2024/01/29 04:38:16;;;;;;;1.97;1.67;;;2.90;99.90;;;;;;5011154;28;20422;-64
2024/01/29 04:40:44;;;;;;;2.70;1.77;;;2.70;99.90;;;;;;5001575;28;20204;-64
2024/01/29 04:43:11;;;;;;;1.77;1.67;;;2.70;99.90;;;;;;5016233;28;21347;-64
2024/01/29 04:45:38;;;;;;;2.23;1.70;;;2.80;99.90;;;;;;4984000;28;20310;-63
2024/01/29 04:48:05;;;;;;;1.63;1.50;;;2.70;99.90;;;;;;5011458;28;20218;-63
2024/01/29 04:50:32;;;;;;;2.30;1.53;;;2.70;99.90;;;;;;5000882;28;20225;-63
2024/01/29 04:52:59;;;;;;;4.67;1.57;;;2.70;99.90;;;;;;5008017;28;20625;-63
2024/01/29 04:55:25;;;;;;;5.00;1.50;;;2.80;99.90;;;;;;4997266;28;20225;-63
2024/01/29 04:57:54;;;;;;;1.90;1.60;;;2.80;99.90;;;;;;5004430;28;20201;-64
2024/01/29 05:00:21;;;;;;;1.93;1.50;;;2.80;99.90;;;;;;5011879;28;20676;-63
2024/01/29 05:02:48;;;;;;;2.63;1.90;;;;;;;;;;4970370;28;20237;-64
2024/01/29 05:05:16;;;;;;;2.47;1.47;;;2.70;99.90;;;;;;5013184;28;20205;-64
2024/01/29 05:07:43;;;;;;;4.00;2.00;;;2.70;99.90;;;;;;4975155;28;20877;-64
2024/01/29 05:10:10;;;;;;;3.23;1.87;;;2.80;99.90;;;;;;4996179;28;20236;-63
2024/01/29 05:12:37;;;;;;;2.33;1.70;;;2.70;99.90;;;;;;5013939;28;20193;-63
2024/01/29 05:15:06;;;;;;;1.73;1.60;;;2.70;99.90;;;;;;4996103;28;21480;-63
2024/01/29 05:17:33;;;;;;;2.47;1.50;;;2.80;99.90;;;;;;4973051;28;20953;-63
2024/01/29 05:20:01;;;;;;;2.63;1.70;;;;;;;;;;4992153;28;20958;-63
2024/01/29 05:22:28;;;;;;;1.83;1.63;;;2.80;99.90;;;;;;4975819;28;20613;-63
2024/01/29 05:24:54;;;;;;;3.73;1.97;;;2.80;99.90;;;;;;4991746;28;20205;-63
2024/01/29 05:27:21;;;;;;;2.57;1.80;;;2.80;99.90;;;;;;5001414;28;20644;-63
2024/01/29 05:29:48;;;;;;;1.93;1.73;;;2.80;99.90;;;;;;5009363;28;20207;-63
2024/01/29 05:32:16;;;;;;;2.53;1.70;;;2.80;99.90;;;;;;4974549;28;20319;-63
2024/01/29 05:34:43;;;;;;;1.60;1.50;;;2.80;99.90;;;;;;5004581;28;21052;-64
2024/01/29 05:37:10;;;;;;;2.33;1.90;;;2.80;99.90;;;;;;4970179;28;20229;-63
2024/01/29 05:39:37;;;;;;;4.63;1.80;;;2.90;99.90;;;;;;4975011;28;20506;-64
2024/01/29 05:42:04;;;;;;;2.30;1.40;;;2.90;99.90;;;;;;4989091;28;20237;-63
2024/01/29 05:44:31;;;;;;;2.23;1.70;;;2.90;99.90;;;;;;5014750;28;20655;-63
2024/01/29 05:46:58;;;;;;;3.57;1.43;;;2.70;99.90;;;;;;4965688;28;20450;-64
2024/01/29 05:49:26;;;;;;;2.80;1.83;;;2.90;99.90;;;;;;5009516;28;20213;-63
2024/01/29 05:51:53;;;;;;;3.30;1.60;;;2.90;99.90;;;;;;4992090;28;20228;-63
2024/01/29 05:54:19;;;;;;;2.00;1.60;;;3.00;99.90;;;;;;4998993;28;20255;-63
2024/01/29 05:56:47;;;;;;;2.60;1.83;;;3.00;99.90;;;;;;4995085;28;20525;-63
2024/01/29 05:59:14;;;;;;;1.60;1.50;;;3.70;99.90;;;;;;5002032;28;20218;-63
2024/01/29 06:01:40;;;;;;;2.60;1.90;;;3.20;99.90;;;;;;4996750;28;20480;-63
2024/01/29 06:04:07;;;;;;;1.83;1.60;;;3.00;99.90;;;;;;4970760;28;20391;-64
2024/01/29 06:06:37;;;;;;;1.83;1.57;;;3.10;99.90;;;;;;4999080;28;20271;-63
2024/01/29 06:09:05;;;;;;;4.17;1.93;;;3.00;99.90;;;;;;4991013;28;20244;-64
2024/01/29 06:11:32;;;;;;;4.57;1.53;;;3.00;99.90;;;;;;5005690;28;20232;-63
2024/01/29 06:13:59;;;;;;;2.30;1.60;;;2.90;99.90;;;;;;4992150;28;20328;-63
2024/01/29 06:16:26;;;;;;;4.60;2.90;;;2.90;99.90;;;;;;5007054;28;20990;-63
2024/01/29 06:18:53;;;;;;;3.20;1.70;;;2.90;99.90;;;;;;4974728;28;20948;-63
2024/01/29 06:21:20;;;;;;;2.73;1.87;;;2.80;99.90;;;;;;5016024;28;20213;-63
2024/01/29 06:23:48;;;;;;;2.20;1.87;;;2.80;99.90;;;;;;5006256;28;20229;-63
2024/01/29 06:26:15;;;;;;;1.83;1.63;;;2.80;99.90;;;;;;5006144;28;20203;-63
2024/01/29 06:28:42;;;;;;;2.97;1.80;;;2.40;99.90;;;;;;4995927;28;20213;-64
2024/01/29 06:31:09;;;;;;;2.77;1.70;;;;;;;;;;4981709;28;20201;-63
2024/01/29 06:33:38;;;;;;;2.63;1.90;;;2.80;99.90;;;;;;4983073;28;20801;-63
2024/01/29 06:36:05;;;;;;;2.63;1.70;;;2.80;99.90;;;;;;5014354;28;20329;-63
2024/01/29 06:38:32;;;;;;;1.93;1.60;;;2.80;99.90;;;;;;5013070;28;20212;-63
2024/01/29 06:41:00;;;;;;;2.37;1.60;;;2.80;99.90;;;;;;4996730;28;20206;-63
2024/01/29 06:43:27;;;;;;;5.27;1.87;;;2.90;99.90;;;;;;5009958;28;20315;-63
2024/01/29 06:45:54;;;;;;;2.60;1.70;;;2.90;99.90;;;;;;5017289;28;20596;-63
2024/01/29 06:48:21;;;;;;;2.03;1.70;;;2.90;99.90;;;;;;5018855;28;20198;-64
2024/01/29 06:50:48;;;;;;;3.60;1.80;;;2.90;99.90;;;;;;4986209;28;20403;-64
2024/01/29 06:53:15;;;;;;;3.40;1.90;;;3.00;99.90;;;;;;5021881;28;20922;-63
2024/01/29 06:55:42;;;;;;;2.40;2.07;;;2.80;99.90;;;;;;5003616;28;20336;-64
2024/01/29 06:58:10;;;;;;;3.27;1.87;;;3.10;99.90;;;;;;5000314;28;20222;-63
2024/01/29 07:00:37;;;;;;;3.40;1.87;;;3.00;99.90;;;;;;5004914;28;20201;-64
2024/01/29 07:03:05;;;;;;;2.90;1.90;;;3.10;99.90;;;;;;5018727;28;20226;-64
2024/01/29 07:05:32;;;;;;;2.10;1.87;;;3.20;99.90;;;;;;4997359;28;20207;-64
2024/01/29 07:07:59;;;;;;;2.00;1.70;;;3.20;99.90;;;;;;5007293;28;20292;-64
2024/01/29 07:10:26;;;;;;;4.53;1.97;;;3.20;99.90;;;;;;5019058;28;20276;-64
2024/01/29 07:12:52;;;;;;;2.53;1.87;;;3.20;99.90;;;;;;4999843;28;20494;-64
2024/01/29 07:15:21;;;;;;;4.37;2.10;;;3.10;99.90;;;;;;5010664;28;20597;-64
2024/01/29 07:17:47;;;;;;;2.07;1.70;;;3.20;99.90;;;;;;5013902;28;20217;-63
2024/01/29 07:20:14;;;;;;;3.23;1.80;;;3.10;99.90;;;;;;5020860;28;20663;-64
2024/01/29 07:22:42;;;;;;;3.90;1.80;;;3.10;99.90;;;;;;4984596;28;20555;-64
2024/01/29 07:25:09;;;;;;;5.53;2.20;;;3.50;99.90;;;;;;5016419;28;20944;-63
2024/01/29 07:27:36;;;;;;;2.00;1.50;;;2.90;99.90;;;;;;4999563;28;20710;-63
2024/01/29 07:30:04;;;;;;;3.07;1.70;;;2.90;99.90;;;;;;5020858;28;21035;-63
2024/01/29 07:32:32;;;;;;;3.50;2.13;;;2.90;99.90;;;;;;4988951;28;20416;-63
2024/01/29 07:35:00;;;;;;;2.13;1.80;;;3.00;99.90;;;;;;5014985;28;20198;-63
2024/01/29 07:37:27;;;;;;;2.07;1.80;;;2.90;99.90;;;;;;5002479;28;20269;-64
2024/01/29 07:39:54;;;;;;;2.87;1.80;;;3.00;99.90;;;;;;4987840;28;20918;-64
2024/01/29 07:42:21;;;;;;;2.73;1.87;;;3.30;99.90;;;;;;5006299;28;20371;-63
2024/01/29 07:44:48;;;;;;;4.10;1.80;;;3.10;99.90;;;;;;4996089;28;20540;-64
2024/01/29 07:47:15;;;;;;;4.50;2.30;;;3.10;99.90;;;;;;5004176;28;20216;-64
2024/01/29 07:49:44;;;;;;;2.10;1.83;;;3.10;99.90;;;;;;5013640;28;20293;-63
2024/01/29 07:52:11;;;;;;;2.53;1.73;;;3.10;99.90;;;;;;5013515;28;20212;-64
2024/01/29 07:54:38;;;;;;;2.93;1.70;;;3.20;99.90;;;;;;4979906;28;20685;-64
2024/01/29 07:57:05;;;;;;;3.67;1.83;;;3.10;99.90;;;;;;5006502;28;20762;-64
2024/01/29 07:59:32;;;;;;;3.70;1.77;;;3.20;99.90;;;;;;5001412;28;20197;-64
2024/01/29 08:01:59;;;;;;;2.23;1.67;;;3.20;99.90;;;;;;5010658;28;20208;-63
2024/01/29 08:04:26;;;;;;;5.33;1.90;;;3.20;99.90;;;;;;5002678;28;20711;-63
2024/01/29 08:06:54;;;;;;;3.00;2.20;;;3.30;99.90;;;;;;5014834;28;20764;-63
2024/01/29 08:09:21;;;;;;;2.07;1.57;;;3.30;99.90;;;;;;4984651;28;20219;-64
2024/01/29 08:11:48;;;;;;;2.87;1.60;;;3.30;99.90;;;;;;5006031;28;20310;-64
2024/01/29 08:14:15;;;;;;;4.03;2.20;;;3.20;99.90;;;;;;5018588;28;20321;-63
2024/01/29 08:16:41;;;;;;;4.23;2.20;;;3.20;99.90;;;;;;5001689;28;20230;-63
2024/01/29 08:19:08;;;;;;;4.73;2.00;;;3.20;99.90;;;;;;5006581;28;20570;-64
2024/01/29 08:21:35;;;;;;;3.40;2.13;;;3.10;99.90;;;;;;5015974;28;20209;-64
2024/01/29 08:24:04;;;;;;;2.77;1.77;;;3.20;99.90;;;;;;4983152;28;20233;-64
2024/01/29 08:26:31;;;;;;;2.10;1.90;;;;;;;;;;5007756;28;20229;-63
2024/01/29 08:28:58;;;;;;;4.17;1.90;;;3.20;99.90;;;;;;5001414;28;20204;-63
2024/01/29 08:31:25;;;;;;;3.30;2.30;;;3.30;99.90;;;;;;4998508;28;20714;-64
2024/01/29 08:33:52;;;;;;;4.87;2.23;;;3.30;99.90;;;;;;5007431;28;20975;-63
2024/01/29 08:36:21;;;;;;;3.10;1.87;;;3.30;99.90;;;;;;5005832;28;20212;-64
2024/01/29 08:38:48;;;;;;;4.50;1.83;;;3.30;99.90;;;;;;5006433;28;20616;-63
2024/01/29 08:41:16;;;;;;;2.70;1.90;;;3.30;99.90;;;;;;4984243;28;20305;-63
2024/01/29 08:43:43;;;;;;;2.73;1.70;;;3.30;99.90;;;;;;5005382;28;20239;-63
2024/01/29 08:46:10;;;;;;;3.03;2.07;;;3.40;99.90;;;;;;5000137;28;20663;-63
2024/01/29 08:48:37;;;;;;;2.70;1.90;;;3.40;99.90;;;;;;5015705;28;20289;-63
2024/01/29 08:51:04;;;;;;;2.63;1.73;;;3.40;99.90;;;;;;5005310;28;20610;-63
2024/01/29 08:53:31;;;;;;;3.87;2.30;;;3.50;99.90;;;;;;5001519;28;20208;-63
2024/01/29 08:55:58;;;;;;;3.70;1.90;;;3.50;99.90;;;;;;4982008;28;20212;-64
2024/01/29 08:58:26;;;;;;;2.57;1.80;;;3.80;99.90;;;;;;5005929;28;20573;-64
2024/01/29 09:00:54;;;;;;;3.07;2.10;;;3.30;99.90;;;;;;5011703;28;20384;-63
2024/01/29 09:03:21;;;;;;;4.80;2.03;;;3.70;99.90;;;;;;5002112;28;20243;-63
2024/01/29 09:05:48;;;;;;;10.30;2.03;;;3.70;99.90;;;;;;5001666;28;20328;-64
2024/01/29 09:08:15;;;;;;;2.73;2.10;;;3.80;99.90;;;;;;5007982;28;20205;-64
2024/01/29 09:10:41;;;;;;;3.63;2.30;;;3.90;99.90;;;;;;4976622;28;22824;-64
2024/01/29 09:13:08;;;;;;;2.63;1.83;;;3.90;99.90;;;;;;5011003;28;20581;-64
2024/01/29 09:15:36;;;;;;;3.43;2.07;;;4.00;99.90;;;;;;5006039;28;20247;-64
2024/01/29 09:18:04;;;;;;;3.23;1.90;;;4.00;99.90;;;;;;4985715;28;20210;-64
2024/01/29 09:20:30;;;;;;;2.23;1.87;;;4.10;99.90;;;;;;5018012;28;20219;-64
2024/01/29 09:22:57;;;;;;;3.37;2.70;;;4.10;99.90;;;;;;5002925;28;20293;-64
2024/01/29 09:25:25;;;;;;;2.80;2.23;;;4.30;99.90;;;;;;4996868;28;20313;-64
2024/01/29 09:27:52;;;;;;;2.73;1.93;;;4.20;99.90;;;;;;4976690;28;20226;-64
2024/01/29 09:30:18;;;;;;;4.33;2.20;;;3.60;99.90;;;;;;4993632;28;20461;-64
2024/01/29 09:32:47;;;;;;;3.57;2.13;;;4.20;99.90;;;;;;5018609;28;20283;-64
2024/01/29 09:35:13;;;;;;;2.40;2.20;;;3.30;99.90;;;;;;5001518;28;20194;-64
2024/01/29 09:37:41;;;;;;;4.97;2.33;;;4.30;99.90;;;;;;4999327;28;20423;-63
2024/01/29 09:40:12;;;;;;;2.50;2.20;;;4.30;99.90;;;;;;4995797;28;20283;-64
2024/01/29 09:42:41;;;;;;;3.70;2.53;;;4.40;99.90;;;;;;4977512;28;20485;-64
2024/01/29 09:45:11;;;;;;;2.93;2.27;;;4.40;99.90;;;;;;5003427;28;20342;-64
2024/01/29 09:47:39;;;;;;;3.50;2.53;;;4.40;99.90;;;;;;5000616;28;20595;-64
2024/01/29 09:50:10;;;;;;;2.43;2.07;;;4.50;99.90;;;;;;4997055;28;20848;-64
2024/01/29 09:52:40;;;;;;;4.77;2.80;;;4.60;99.90;;;;;;4997907;28;20206;-64
2024/01/29 09:55:10;;;;;;;4.67;2.70;;;4.70;99.90;;;;;;4991893;28;20304;-64
2024/01/29 09:57:37;;;;;;;3.63;2.47;;;4.70;99.90;;;;;;4981794;28;20209;-64
2024/01/29 10:00:05;;;;;;;3.80;2.37;;;4.80;99.90;;;;;;5013422;28;20970;-64
2024/01/29 10:02:34;;;;;;;7.30;2.43;;;5.10;99.90;;;;;;5004035;28;20210;-64
2024/01/29 10:05:01;;;;;;;5.37;2.80;;;4.90;99.90;;;;;;4999703;28;20232;-64
2024/01/29 10:07:29;;;;;;;6.97;2.50;;;4.90;99.90;;;;;;5000099;28;20310;-64
2024/01/29 10:09:56;;;;;;;5.73;2.70;;;5.00;99.90;;;;;;4999444;28;20204;-64
2024/01/29 10:12:23;;;;;;;5.67;2.70;;;5.00;99.90;;;;;;4977745;28;20853;-64
2024/01/29 10:14:55;;;;;;;5.23;2.97;;;5.30;99.90;;;;;;5014275;28;20247;-64
2024/01/29 10:17:22;;;;;;;4.63;2.80;;;5.20;99.90;;;;;;5001032;28;20745;-64
2024/01/29 10:19:49;;;;;;;4.17;2.40;;;5.30;99.90;;;;;;5006025;28;20206;-63
2024/01/29 10:22:16;;;;;;;5.10;2.90;;;5.40;99.90;;;;;;5016132;28;20599;-64
2024/01/29 10:24:45;;;;;;;2.80;2.20;;;5.40;99.90;;;;;;4993036;28;20715;-64
2024/01/29 10:27:11;;;;;;;6.43;2.90;;;5.40;99.90;;;;;;4981860;28;20877;-64
2024/01/29 10:29:48;;;;;;;2.93;2.43;;;5.60;99.90;;;;;;5015650;28;20209;-64
2024/01/29 10:32:15;;;;;;;5.77;2.90;;;5.80;99.90;;;;;;4999010;28;20248;-64
2024/01/29 10:34:41;;;;;;;2.80;2.47;;;5.70;99.90;;;;;;4989885;28;20225;-64
2024/01/29 10:37:09;;;;;;;2.87;2.60;;;;;;;;;;5008080;28;20976;-64
2024/01/29 10:39:38;;;;;;;3.83;2.87;;;5.70;99.90;;;;;;4997330;28;20588;-63
2024/01/29 10:42:09;;;;;;;4.97;3.20;;;5.90;99.90;;;;;;5016966;28;20218;-64
2024/01/29 10:44:39;;;;;;;4.10;2.67;;;5.90;99.90;;;;;;4987894;28;20327;-64
2024/01/29 10:47:14;;;;;;;9.17;3.00;;;5.90;99.90;;;;;;5018581;28;20689;-64
2024/01/29 10:49:42;;;;;;;5.03;3.20;;;5.90;99.90;;;;;;4991257;28;20244;-64
2024/01/29 10:52:12;;;;;;;6.90;3.30;;;6.00;99.90;;;;;;5021363;28;20197;-64
2024/01/29 10:54:40;;;;;;;4.27;2.73;;;6.00;99.90;;;;;;5011933;28;20512;-64
2024/01/29 10:57:10;;;;;;;5.47;3.17;;;6.10;99.90;;;;;;5006598;28;20696;-64
2024/01/29 10:59:38;;;;;;;4.40;3.37;;;6.10;99.90;;;;;;4988585;28;20628;-64
2024/01/29 11:02:06;;;;;;;5.20;3.30;;;6.20;99.90;;;;;;5020446;28;20578;-64
2024/01/29 11:04:33;;;;;;;5.30;2.40;;;6.30;99.90;;;;;;5010514;28;20535;-64
2024/01/29 11:07:09;;;;;;;4.30;3.40;;;6.30;99.90;;;;;;5006796;28;20224;-64
2024/01/29 11:09:37;;;;;;;3.40;3.10;;;6.30;99.90;;;;;;5012750;28;20553;-64
2024/01/29 11:12:05;;;;;;;5.10;3.47;;;6.40;99.90;;;;;;5010665;28;20197;-64
2024/01/29 11:14:33;;;;;;;5.30;3.13;;;6.40;99.90;;;;;;4988758;28;20364;-64
2024/01/29 11:17:00;;;;;;;4.00;3.13;;;6.50;99.90;;;;;;5016465;28;20732;-64
2024/01/29 11:19:32;;;;;;;4.43;3.17;;;6.60;99.90;;;;;;5012777;28;20232;-64
2024/01/29 11:21:59;;;;;;;5.57;3.53;;;6.60;99.90;;;;;;5006685;28;20339;-64
2024/01/29 11:24:28;;;;;;;4.93;3.20;;;6.70;99.90;;;;;;5010012;28;20229;-64
2024/01/29 11:27:06;;;;;;;3.90;3.30;;;6.70;99.90;;;;;;5012473;28;20244;-64
2024/01/29 11:29:37;;;;;;;5.17;3.37;;;6.80;99.90;;;;;;4970662;28;20228;-64
2024/01/29 11:32:05;;;;;;;8.40;3.50;;;6.90;99.90;;;;;;5014522;28;20621;-64
2024/01/29 11:34:32;;;;;;;6.23;3.50;;;6.90;99.90;;;;;;5004586;28;20209;-64
2024/01/29 11:37:00;;;;;;;5.63;3.50;;;7.00;99.90;;;;;;4987874;28;20217;-64
2024/01/29 11:39:27;;;;;;;9.00;3.63;;;7.10;99.90;;;;;;5014003;28;20518;-65
2024/01/29 11:41:54;;;;;;;6.10;3.40;;;7.10;99.90;;;;;;4989232;28;20631;-64
2024/01/29 11:44:22;;;;;;;6.00;3.93;;;7.20;99.90;;;;;;5010736;28;20306;-64
2024/01/29 11:46:51;;;;;;;6.00;3.47;;;7.30;99.90;;;;;;4972663;28;20771;-64
2024/01/29 11:49:25;;;;;;;5.27;3.63;;;7.30;99.90;;;;;;5023033;28;20312;-64
2024/01/29 11:51:54;;;;;;;4.13;3.50;;;7.90;99.90;;;;;;5006550;28;20251;-64
2024/01/29 11:54:22;;;;;;;6.63;3.50;;;7.40;99.90;;;;;;5018533;28;20218;-64
2024/01/29 11:56:49;;;;;;;5.93;4.07;;;7.40;99.90;;;;;;4966391;28;21012;-64
2024/01/29 11:59:16;;;;;;;4.83;3.77;;;7.50;99.90;;;;;;4994836;28;20202;-64
2024/01/29 12:01:44;;;;;;;7.07;4.50;;;8.30;99.90;;;;;;4976618;28;20212;-64
2024/01/29 12:04:12;;;;;;;11.30;4.57;;;7.50;99.90;;;;;;4990711;28;20222;-64
2024/01/29 12:06:39;;;;;;;6.37;4.10;;;7.60;99.90;;;;;;4991915;28;20201;-64
2024/01/29 12:09:09;;;;;;;5.97;4.03;;;7.60;99.90;;;;;;5004351;28;20572;-64
2024/01/29 12:11:36;;;;;;;6.20;4.00;;;;;;;;;;4987547;28;20323;-64
2024/01/29 12:14:04;;;;;;;6.57;4.40;;;7.70;99.90;;;;;;4995780;28;20213;-64
2024/01/29 12:16:31;;;;;;;6.77;4.40;;;8.10;99.90;;;;;;4982491;28;20252;-65
2024/01/29 12:18:59;;;;;;;5.90;4.53;;;7.70;99.90;;;;;;4971696;28;20356;-64
2024/01/29 12:21:27;;;;;;;8.07;4.27;;;7.70;99.90;;;;;;4996331;28;20667;-64
2024/01/29 12:23:56;;;;;;;6.03;3.87;;;7.80;99.90;;;;;;4990116;28;20224;-64
2024/01/29 12:26:28;;;;;;;4.40;3.80;;;7.80;99.90;;;;;;4986729;28;20598;-64
2024/01/29 12:28:56;;;;;;;6.33;4.00;;;7.90;99.90;;;;;;4970067;28;20222;-64
2024/01/29 12:31:24;;;;;;;6.30;3.83;;;7.90;99.90;;;;;;4990257;28;21124;-65
2024/01/29 12:33:50;;;;;;;7.83;4.30;;;7.90;99.90;;;;;;4952034;28;20544;-64
2024/01/29 12:36:18;;;;;;;7.57;4.20;;;7.90;99.90;;;;;;4987390;28;20391;-64
2024/01/29 12:38:53;;;;;;;6.40;4.70;;;8.10;99.90;;;;;;4978743;28;20348;-65
2024/01/29 12:41:20;;;;;;;8.93;4.90;;;8.10;99.90;;;;;;4994231;28;20193;-65
2024/01/29 12:43:50;;;;;;;6.37;4.40;;;8.10;99.90;;;;;;4959642;28;20206;-65
2024/01/29 12:46:17;;;;;;;5.90;4.10;;;8.20;99.90;;;;;;4989180;28;20206;-65
2024/01/29 12:48:44;;;;;;;11.07;5.47;;;8.20;99.90;;;;;;4957522;28;20475;-65
2024/01/29 12:51:12;;;;;;;5.70;4.57;;;8.20;99.90;;;;;;4978728;28;20226;-64
2024/01/29 12:53:41;;;;;;;5.00;4.45;;;8.20;99.90;;;;;;4980181;28;20241;-64
2024/01/29 12:56:09;;;;;;;6.85;4.75;;;8.30;99.90;;;;;;4976096;28;20428;-65
2024/01/29 12:58:36;;;;;;;9.52;4.53;;;8.30;99.90;;;;;;4970756;28;20232;-64
2024/01/29 13:01:02;;;;;;;5.32;4.70;;;8.30;99.90;;;;;;4989180;28;20474;-65